createdAt,value
2022-07-26T00:01:21.286Z,100549.00
2022-07-26T00:03:49.443Z,100547.63
2022-07-26T00:06:16.513Z,100534.47
2022-07-26T00:08:45.574Z,100548.31
2022-07-26T00:11:12.550Z,100539.16
2022-07-26T00:13:39.150Z,100540.25
2022-07-26T00:16:06.206Z,100528.38
2022-07-26T00:18:33.012Z,100545.19
2022-07-26T00:20:59.653Z,100541.13
2022-07-26T00:23:27.541Z,100545.50
2022-07-26T00:25:54.186Z,100545.75
2022-07-26T00:28:20.847Z,100544.25
2022-07-26T00:30:47.548Z,100547.97
2022-07-26T00:33:14.351Z,100539.88
2022-07-26T00:35:40.881Z,100548.78
2022-07-26T00:38:08.078Z,100545.75
2022-07-26T00:40:35.625Z,100544.69
2022-07-26T00:43:03.220Z,100547.28
2022-07-26T00:45:29.643Z,100543.75
2022-07-26T00:47:56.174Z,100548.13
2022-07-26T00:50:22.680Z,100546.31
2022-07-26T00:52:50.423Z,100546.94
2022-07-26T00:55:18.295Z,100553.22
2022-07-26T00:57:45.336Z,100567.16
2022-07-26T01:00:16.705Z,100553.81
2022-07-26T01:02:44.185Z,100557.81
2022-07-26T01:05:11.328Z,100552.00
2022-07-26T01:07:39.335Z,100556.06
2022-07-26T01:10:10.635Z,100550.06
2022-07-26T01:12:37.380Z,100552.31
2022-07-26T01:15:04.149Z,100552.88
2022-07-26T01:17:30.745Z,100560.00
2022-07-26T01:19:57.342Z,100551.38
2022-07-26T01:22:24.297Z,100539.22
2022-07-26T01:24:50.920Z,100560.84
2022-07-26T01:27:17.695Z,100551.50
2022-07-26T01:29:44.464Z,100551.50
2022-07-26T01:32:10.976Z,100553.09
2022-07-26T01:34:37.480Z,100549.66
2022-07-26T01:37:05.889Z,100543.84
2022-07-26T01:39:32.475Z,100550.63
2022-07-26T01:41:59.363Z,100550.31
2022-07-26T01:44:25.940Z,100554.56
2022-07-26T01:46:52.442Z,100544.78
2022-07-26T01:49:19.368Z,100559.03
2022-07-26T01:51:45.952Z,100552.25
2022-07-26T01:54:12.719Z,100544.38
2022-07-26T01:56:39.365Z,100547.19
2022-07-26T01:59:05.869Z,100551.56
2022-07-26T02:01:39.290Z,100559.81
2022-07-26T02:04:29.445Z,100570.66
2022-07-26T02:06:55.874Z,100563.03
2022-07-26T02:09:22.410Z,100564.78
2022-07-26T02:11:49.218Z,100563.91
2022-07-26T02:14:25.474Z,100559.63
2022-07-26T02:16:59.610Z,100566.59
2022-07-26T02:19:30.062Z,100569.50
2022-07-26T02:21:56.655Z,100574.28
2022-07-26T02:24:23.851Z,100581.97
2022-07-26T02:26:50.443Z,100580.88
2022-07-26T02:29:16.947Z,100579.53
2022-07-26T02:31:48.461Z,100579.56
2022-07-26T02:34:15.958Z,100573.34
2022-07-26T02:36:42.554Z,100580.38
2022-07-26T02:39:09.038Z,100572.31
2022-07-26T02:41:35.706Z,100572.41
2022-07-26T02:44:02.220Z,100572.28
2022-07-26T02:46:28.747Z,100579.28
2022-07-26T02:48:59.633Z,100583.94
2022-07-26T02:51:27.072Z,100584.94
2022-07-26T02:53:54.017Z,100577.03
2022-07-26T02:56:21.384Z,100573.53
2022-07-26T02:58:47.914Z,100576.78
2022-07-26T03:01:14.473Z,100572.06
2022-07-26T03:03:41.029Z,100577.44
2022-07-26T03:06:07.789Z,100581.00
2022-07-26T03:08:34.384Z,100588.75
2022-07-26T03:11:00.908Z,100583.50
2022-07-26T03:13:27.440Z,100590.09
2022-07-26T03:15:53.966Z,100590.34
2022-07-26T03:18:20.551Z,100589.19
2022-07-26T03:20:47.916Z,100585.84
2022-07-26T03:23:14.421Z,100588.66
2022-07-26T03:25:41.010Z,100595.31
2022-07-26T03:28:07.601Z,100602.31
2022-07-26T03:30:34.424Z,100605.81
2022-07-26T03:33:00.882Z,100607.78
2022-07-26T03:35:27.414Z,100602.50
2022-07-26T03:37:53.861Z,100612.19
2022-07-26T03:40:21.073Z,100602.50
2022-07-26T03:42:48.504Z,100605.03
2022-07-26T03:45:15.963Z,100596.13
2022-07-26T03:47:43.146Z,100611.31
2022-07-26T03:50:11.032Z,100603.97
2022-07-26T03:52:37.793Z,100609.09
2022-07-26T03:55:24.585Z,100610.84
2022-07-26T03:57:51.121Z,100611.69
2022-07-26T04:00:17.718Z,100611.44
2022-07-26T04:02:44.547Z,100609.97
2022-07-26T04:05:11.298Z,100609.41
2022-07-26T04:07:52.509Z,100618.34
2022-07-26T04:10:20.708Z,100603.47
2022-07-26T04:12:47.259Z,100616.44
2022-07-26T04:15:16.065Z,100607.66
2022-07-26T04:17:43.223Z,100618.00
2022-07-26T04:20:11.223Z,100619.91
2022-07-26T04:22:39.121Z,100623.84
2022-07-26T04:25:07.367Z,100608.09
2022-07-26T04:27:34.207Z,100629.19
2022-07-26T04:30:01.309Z,100632.78
2022-07-26T04:32:27.974Z,100631.44
2022-07-26T04:34:54.545Z,100619.13
2022-07-26T04:37:21.043Z,100627.56
2022-07-26T04:39:51.669Z,100627.50
2022-07-26T04:42:20.991Z,100629.91
2022-07-26T04:44:47.584Z,100627.28
2022-07-26T04:47:14.155Z,100615.34
2022-07-26T04:49:40.619Z,100629.00
2022-07-26T04:52:07.255Z,100634.00
2022-07-26T04:54:33.762Z,100622.41
2022-07-26T04:57:00.290Z,100619.97
2022-07-26T04:59:26.787Z,100625.78
2022-07-26T05:01:53.351Z,100630.44
2022-07-26T05:04:20.070Z,100632.97
2022-07-26T05:06:46.796Z,100626.78
2022-07-26T05:09:13.568Z,100618.28
2022-07-26T05:11:42.804Z,100631.78
2022-07-26T05:14:09.767Z,100623.31
2022-07-26T05:16:39.105Z,100627.41
2022-07-26T05:19:11.114Z,100631.22
2022-07-26T05:21:37.603Z,100628.31
2022-07-26T05:24:04.865Z,100628.66
2022-07-26T05:26:34.582Z,100629.53
2022-07-26T05:29:01.335Z,100630.72
2022-07-26T05:31:27.929Z,100635.06
2022-07-26T05:33:55.282Z,100642.13
2022-07-26T05:36:22.097Z,100648.78
2022-07-26T05:38:48.675Z,100648.34
2022-07-26T05:41:15.186Z,100645.16
2022-07-26T05:43:42.172Z,100641.56
2022-07-26T05:46:10.121Z,100635.78
2022-07-26T05:48:37.251Z,100641.50
2022-07-26T05:51:04.146Z,100641.16
2022-07-26T05:53:31.038Z,100641.19
2022-07-26T05:55:57.760Z,100634.47
2022-07-26T05:58:24.261Z,100650.66
2022-07-26T06:00:50.830Z,100646.25
2022-07-26T06:03:23.284Z,100652.03
2022-07-26T06:05:51.767Z,100651.66
2022-07-26T06:08:18.798Z,100652.00
2022-07-26T06:10:46.461Z,100653.16
2022-07-26T06:13:13.166Z,100650.16
2022-07-26T06:15:40.206Z,100648.91
2022-07-26T06:18:07.020Z,100657.63
2022-07-26T06:20:34.055Z,100667.63
2022-07-26T06:23:00.977Z,100664.09
2022-07-26T06:25:27.687Z,100673.47
2022-07-26T06:27:54.328Z,100666.56
2022-07-26T06:30:20.820Z,100669.97
2022-07-26T06:32:47.332Z,100677.09
2022-07-26T06:35:15.088Z,100677.44
2022-07-26T06:37:43.212Z,100680.75
2022-07-26T06:40:10.979Z,100681.41
2022-07-26T06:42:38.464Z,100672.25
2022-07-26T06:45:05.945Z,100681.69
2022-07-26T06:47:32.676Z,100671.34
2022-07-26T06:49:59.292Z,100682.44
2022-07-26T06:52:26.002Z,100673.88
2022-07-26T06:54:52.522Z,100679.19
2022-07-26T06:57:19.066Z,100690.19
2022-07-26T06:59:45.652Z,100690.28
2022-07-26T07:02:12.237Z,100666.91
2022-07-26T07:04:38.773Z,100664.22
2022-07-26T07:07:06.406Z,100695.00
2022-07-26T07:09:33.793Z,100691.22
2022-07-26T07:12:09.759Z,100698.56
2022-07-26T07:14:37.704Z,100714.88
2022-07-26T07:17:11.202Z,100706.69
2022-07-26T07:19:39.965Z,100698.41
2022-07-26T07:22:11.569Z,100714.56
2022-07-26T07:24:39.074Z,100708.03
2022-07-26T07:27:06.043Z,100709.97
2022-07-26T07:29:33.755Z,100709.06
2022-07-26T07:32:00.439Z,100707.59
2022-07-26T07:34:30.246Z,100711.50
2022-07-26T07:36:57.505Z,100707.59
2022-07-26T07:39:24.407Z,100717.03
2022-07-26T07:42:01.329Z,100716.31
2022-07-26T07:44:28.553Z,100722.31
2022-07-26T07:46:55.146Z,100708.56
2022-07-26T07:49:22.434Z,100718.94
2022-07-26T07:51:49.199Z,100721.28
2022-07-26T07:54:16.114Z,100720.00
2022-07-26T07:56:43.378Z,100727.53
2022-07-26T07:59:10.473Z,100720.09
2022-07-26T08:01:40.405Z,100728.19
2022-07-26T08:04:09.449Z,100721.53
2022-07-26T08:06:36.602Z,100724.97
2022-07-26T08:09:05.626Z,100714.06
2022-07-26T08:11:33.985Z,100700.91
2022-07-26T08:14:02.807Z,100724.97
2022-07-26T08:16:30.726Z,100719.84
2022-07-26T08:18:58.487Z,100715.41
2022-07-26T08:21:27.545Z,100721.13
2022-07-26T08:23:55.908Z,100696.56
2022-07-26T08:26:22.365Z,100716.78
2022-07-26T08:28:59.239Z,100720.19
2022-07-26T08:31:27.591Z,100726.19
2022-07-26T08:33:54.224Z,100719.06
2022-07-26T08:36:20.781Z,100722.19
2022-07-26T08:38:48.134Z,100721.00
2022-07-26T08:41:16.927Z,100716.09
2022-07-26T08:43:51.956Z,100721.41
2022-07-26T08:46:25.504Z,100723.78
2022-07-26T08:48:54.525Z,100728.28
2022-07-26T08:51:24.037Z,100722.88
2022-07-26T08:54:02.234Z,100695.53
2022-07-26T08:56:32.672Z,100729.09
2022-07-26T08:58:59.447Z,100726.13
2022-07-26T09:01:27.192Z,100726.25
2022-07-26T09:03:54.122Z,100706.66
2022-07-26T09:06:22.696Z,100747.22
2022-07-26T09:09:09.769Z,100768.28
2022-07-26T09:11:36.759Z,100779.09
2022-07-26T09:14:06.503Z,100777.16
2022-07-26T09:16:37.546Z,100787.91
2022-07-26T09:19:22.659Z,100803.97
2022-07-26T09:21:51.595Z,100794.25
2022-07-26T09:24:34.711Z,100805.56
2022-07-26T09:27:03.058Z,100801.41
2022-07-26T09:29:29.997Z,100809.28
2022-07-26T09:32:17.120Z,100809.94
2022-07-26T09:34:52.569Z,100817.28
2022-07-26T09:37:36.669Z,100822.81
2022-07-26T09:40:07.462Z,100818.13
2022-07-26T09:42:34.776Z,100835.44
2022-07-26T09:45:01.965Z,100841.03
2022-07-26T09:47:39.217Z,100845.97
2022-07-26T09:50:14.436Z,100841.75
2022-07-26T09:52:56.593Z,100841.09
2022-07-26T09:55:23.283Z,100831.06
2022-07-26T09:57:53.675Z,100835.66
2022-07-26T10:00:20.564Z,100847.94
2022-07-26T10:02:47.275Z,100847.66
2022-07-26T10:05:13.789Z,100852.94
2022-07-26T10:07:40.546Z,100823.31
2022-07-26T10:10:18.107Z,100853.16
2022-07-26T10:12:46.742Z,100849.72
2022-07-26T10:15:35.537Z,100845.09
2022-07-26T10:18:02.639Z,100844.75
2022-07-26T10:20:47.200Z,100849.78
2022-07-26T10:23:32.349Z,100848.94
2022-07-26T10:26:00.464Z,100849.69
2022-07-26T10:28:29.927Z,100856.91
2022-07-26T10:31:15.114Z,100858.84
2022-07-26T10:33:45.033Z,100859.56
2022-07-26T10:36:26.772Z,100863.91
2022-07-26T10:39:24.645Z,100865.13
2022-07-26T10:42:02.581Z,100866.03
2022-07-26T10:44:31.481Z,100892.34
2022-07-26T10:47:08.403Z,100894.72
2022-07-26T10:49:57.817Z,100915.88
2022-07-26T10:52:24.868Z,100923.41
2022-07-26T10:54:57.513Z,100923.53
2022-07-26T10:57:29.147Z,100918.28
2022-07-26T11:00:00.084Z,100913.03
2022-07-26T11:02:32.064Z,100915.25
2022-07-26T11:05:02.429Z,100912.56
2022-07-26T11:07:29.909Z,100913.66
2022-07-26T11:10:00.751Z,100912.72
2022-07-26T11:12:27.343Z,100915.88
2022-07-26T11:14:54.324Z,100888.28
2022-07-26T11:17:25.709Z,100912.34
2022-07-26T11:19:52.482Z,100905.06
2022-07-26T11:22:19.642Z,100915.41
2022-07-26T11:24:46.762Z,100911.84
2022-07-26T11:27:13.758Z,100919.47
2022-07-26T11:29:41.484Z,100924.03
2022-07-26T11:32:21.902Z,100920.66
2022-07-26T11:35:01.188Z,100923.94
2022-07-26T11:37:28.263Z,100929.09
2022-07-26T11:39:54.898Z,100925.75
2022-07-26T11:42:22.141Z,100933.28
2022-07-26T11:44:49.950Z,100938.97
2022-07-26T11:47:24.240Z,100946.75
2022-07-26T11:52:40.318Z,100938.75
2022-07-26T11:55:07.479Z,100944.28
2022-07-26T11:57:34.025Z,100950.44
2022-07-26T12:00:01.490Z,100953.78
2022-07-26T12:02:30.266Z,100949.78
2022-07-26T12:05:18.471Z,100942.75
2022-07-26T12:08:00.677Z,100945.94
2022-07-26T12:10:28.011Z,100950.13
2022-07-26T12:13:14.813Z,100942.72
2022-07-26T12:15:53.326Z,100941.41
2022-07-26T12:18:31.206Z,100941.38
2022-07-26T12:21:08.941Z,100939.09
2022-07-26T12:23:48.552Z,100934.88
2022-07-26T12:26:19.443Z,100935.69
2022-07-26T12:28:45.946Z,100933.06
2022-07-26T12:31:42.322Z,100932.94
2022-07-26T12:34:09.338Z,100932.91
2022-07-26T12:36:36.268Z,100933.91
2022-07-26T12:39:03.316Z,100939.19
2022-07-26T12:41:40.140Z,100943.03
2022-07-26T12:44:11.498Z,100951.09
2022-07-26T12:46:38.894Z,100936.56
2022-07-26T12:49:05.625Z,100942.41
2022-07-26T12:51:32.554Z,100952.81
2022-07-26T12:53:59.194Z,100952.34
2022-07-26T12:56:25.676Z,100941.72
2022-07-26T12:58:53.938Z,100949.59
2022-07-26T13:01:20.532Z,100942.88
2022-07-26T13:03:47.142Z,100938.59
2022-07-26T13:06:13.639Z,100947.25
2022-07-26T13:08:40.154Z,100953.19
2022-07-26T13:11:06.875Z,100950.50
2022-07-26T13:13:33.419Z,100947.09
2022-07-26T13:15:59.901Z,100954.41
2022-07-26T13:18:26.443Z,100954.00
2022-07-26T13:20:53.014Z,100950.31
2022-07-26T13:23:21.926Z,100952.13
2022-07-26T13:25:49.841Z,100947.56
2022-07-26T13:28:17.206Z,100948.94
2022-07-26T13:30:45.032Z,100960.97
2022-07-26T13:33:12.100Z,100959.34
2022-07-26T13:35:41.052Z,100961.59
2022-07-26T13:38:08.487Z,100958.81
2022-07-26T13:40:35.052Z,100964.75
2022-07-26T13:43:01.703Z,100964.91
2022-07-26T13:45:29.430Z,100974.59
2022-07-26T13:48:00.330Z,100973.75
2022-07-26T13:50:28.491Z,100972.72
2022-07-26T13:52:58.188Z,100985.59
2022-07-26T13:55:25.878Z,100984.88
2022-07-26T13:57:57.218Z,100993.41
2022-07-26T14:00:29.377Z,100988.00
2022-07-26T14:02:58.112Z,101009.31
2022-07-26T14:05:25.243Z,101003.28
2022-07-26T14:07:52.546Z,101004.94
2022-07-26T14:10:20.822Z,101011.72
2022-07-26T14:12:48.201Z,101005.81
2022-07-26T14:15:21.159Z,101014.38
2022-07-26T14:17:49.039Z,101010.13
2022-07-26T14:20:17.089Z,101017.84
2022-07-26T14:22:44.494Z,101006.94
2022-07-26T14:25:11.491Z,101023.81
2022-07-26T14:27:38.178Z,101020.97
2022-07-26T14:30:05.188Z,101006.78
2022-07-26T14:32:32.903Z,101002.50
2022-07-26T14:34:59.442Z,101005.53
2022-07-26T14:37:44.323Z,100992.88
2022-07-26T14:40:14.451Z,100991.84
2022-07-26T14:42:41.057Z,100995.28
2022-07-26T14:45:09.580Z,100990.31
2022-07-26T14:47:37.659Z,100993.53
2022-07-26T14:50:07.233Z,100988.50
2022-07-26T14:52:37.053Z,100997.53
2022-07-26T14:55:04.979Z,100998.06
2022-07-26T14:57:31.502Z,100986.94
2022-07-26T14:59:59.232Z,100992.06
2022-07-26T15:02:26.136Z,101003.09
2022-07-26T15:04:52.701Z,101001.34
2022-07-26T15:07:19.209Z,100991.25
2022-07-26T15:09:45.711Z,100999.84
2022-07-26T15:12:12.181Z,100995.19
2022-07-26T15:14:38.727Z,101006.56
2022-07-26T15:17:05.504Z,101004.03
2022-07-26T15:19:32.005Z,100994.16
2022-07-26T15:22:01.943Z,101005.06
2022-07-26T15:24:28.997Z,100997.84
2022-07-26T15:26:55.881Z,100989.72
2022-07-26T15:29:22.491Z,100974.41
2022-07-26T15:31:49.340Z,101001.31
2022-07-26T15:34:16.360Z,100998.84
2022-07-26T15:36:43.136Z,101009.28
2022-07-26T15:39:18.128Z,101009.31
2022-07-26T15:41:46.884Z,101001.47
2022-07-26T15:44:16.189Z,101008.31
2022-07-26T15:46:45.714Z,101007.16
2022-07-26T15:49:14.230Z,101002.66
2022-07-26T15:51:41.025Z,101006.31
2022-07-26T15:54:12.773Z,100999.97
2022-07-26T15:56:39.631Z,100996.53
2022-07-26T15:59:07.278Z,100992.50
2022-07-26T16:01:34.753Z,100989.41
2022-07-26T16:04:01.510Z,100999.41
2022-07-26T16:06:28.295Z,100989.44
2022-07-26T16:09:15.456Z,100986.94
2022-07-26T16:11:41.924Z,100996.19
2022-07-26T16:14:08.540Z,100993.75
2022-07-26T16:16:35.044Z,100987.22
2022-07-26T16:19:01.647Z,100992.66
2022-07-26T16:21:28.296Z,100990.19
2022-07-26T16:23:54.776Z,100987.69
2022-07-26T16:26:21.253Z,100979.31
2022-07-26T16:28:47.724Z,100996.47
2022-07-26T16:31:14.443Z,100986.81
2022-07-26T16:33:45.993Z,100995.66
2022-07-26T16:36:13.382Z,100990.34
2022-07-26T16:38:40.042Z,100977.19
2022-07-26T16:41:06.767Z,100985.16
2022-07-26T16:43:34.524Z,100969.75
2022-07-26T16:46:01.083Z,100979.06
2022-07-26T16:48:27.843Z,100985.03
2022-07-26T16:50:54.486Z,100979.94
2022-07-26T16:53:20.998Z,100990.28
2022-07-26T16:55:49.629Z,100988.28
2022-07-26T16:58:16.560Z,100988.75
2022-07-26T17:00:43.170Z,100989.28
2022-07-26T17:03:09.815Z,100992.22
2022-07-26T17:05:36.354Z,100993.16
2022-07-26T17:08:03.035Z,100995.59
2022-07-26T17:10:29.651Z,100992.22
2022-07-26T17:12:56.151Z,100987.97
2022-07-26T17:15:22.751Z,101007.03
2022-07-26T17:17:49.720Z,100996.91
2022-07-26T17:20:16.629Z,100999.41
2022-07-26T17:22:43.503Z,101003.41
2022-07-26T17:25:10.310Z,101002.09
2022-07-26T17:27:36.988Z,100988.03
2022-07-26T17:30:07.529Z,100993.53
2022-07-26T17:32:34.856Z,100990.88
2022-07-26T17:35:01.985Z,101000.66
2022-07-26T17:37:28.726Z,101005.94
2022-07-26T17:39:57.302Z,101002.84
2022-07-26T17:42:24.353Z,101013.13
2022-07-26T17:44:51.345Z,101008.63
2022-07-26T17:47:29.454Z,100996.09
2022-07-26T17:52:48.884Z,101017.88
2022-07-26T17:55:15.964Z,101015.06
2022-07-26T17:57:42.525Z,101019.91
2022-07-26T18:00:10.982Z,101014.16
2022-07-26T18:02:37.673Z,101010.25
2022-07-26T18:05:04.585Z,101015.38
2022-07-26T18:07:31.193Z,101015.16
2022-07-26T18:09:57.740Z,101025.56
2022-07-26T18:12:24.365Z,101022.09
2022-07-26T18:14:50.953Z,101021.66
2022-07-26T18:17:17.584Z,101021.81
2022-07-26T18:19:44.049Z,101034.72
2022-07-26T18:22:10.881Z,101027.56
2022-07-26T18:24:37.455Z,101027.13
2022-07-26T18:27:04.055Z,101029.84
2022-07-26T18:29:30.732Z,101017.59
2022-07-26T18:32:02.054Z,101029.03
2022-07-26T18:34:29.889Z,101039.22
2022-07-26T18:36:56.636Z,101038.19
2022-07-26T18:39:23.385Z,101054.41
2022-07-26T18:41:49.988Z,101040.13
2022-07-26T18:44:16.620Z,101048.94
2022-07-26T18:46:43.424Z,101037.97
2022-07-26T18:49:15.866Z,101039.25
2022-07-26T18:51:48.778Z,101045.81
2022-07-26T18:54:16.431Z,101048.69
2022-07-26T18:56:43.438Z,101041.91
2022-07-26T18:59:10.496Z,101044.16
2022-07-26T19:01:37.241Z,101029.63
2022-07-26T19:04:07.069Z,101037.03
2022-07-26T19:06:34.952Z,101034.22
2022-07-26T19:09:01.574Z,101033.13
2022-07-26T19:11:29.585Z,101040.84
2022-07-26T19:13:56.127Z,101040.75
2022-07-26T19:16:22.989Z,101044.16
2022-07-26T19:18:52.725Z,101035.72
2022-07-26T19:21:22.217Z,101040.09
2022-07-26T19:23:48.873Z,101050.59
2022-07-26T19:26:15.386Z,101047.97
2022-07-26T19:28:41.994Z,101040.19
2022-07-26T19:31:08.722Z,101053.53
2022-07-26T19:33:35.278Z,101060.97
2022-07-26T19:36:01.889Z,101057.38
2022-07-26T19:38:28.671Z,101062.50
2022-07-26T19:40:55.514Z,101057.63
2022-07-26T19:43:22.622Z,101055.00
2022-07-26T19:45:49.432Z,101073.50
2022-07-26T19:48:16.046Z,101076.97
2022-07-26T19:50:42.830Z,101076.06
2022-07-26T19:53:09.345Z,101075.25
2022-07-26T19:55:38.256Z,101080.53
2022-07-26T19:58:04.898Z,101077.19
2022-07-26T20:00:33.817Z,101092.84
2022-07-26T20:03:01.819Z,101091.25
2022-07-26T20:05:41.005Z,101093.09
2022-07-26T20:08:13.818Z,101084.44
2022-07-26T20:11:17.552Z,101068.94
2022-07-26T20:14:12.336Z,101118.56
2022-07-26T20:17:13.461Z,101038.38
2022-07-26T20:19:42.199Z,101079.06
2022-07-26T20:22:25.872Z,101107.00
2022-07-26T20:24:56.037Z,101111.50
2022-07-26T20:27:24.427Z,101108.66
2022-07-26T20:29:51.291Z,101112.41
2022-07-26T20:32:18.175Z,101110.53
2022-07-26T20:34:45.070Z,101115.34
2022-07-26T20:37:11.795Z,101117.88
2022-07-26T20:39:38.935Z,101115.38
2022-07-26T20:42:06.694Z,101115.44
2022-07-26T20:44:35.887Z,101123.31
2022-07-26T20:47:06.063Z,101132.97
2022-07-26T20:49:32.763Z,101130.41
2022-07-26T20:52:00.066Z,101126.81
2022-07-26T20:54:26.582Z,101122.50
2022-07-26T20:56:53.066Z,101133.03
2022-07-26T20:59:19.820Z,101120.88
2022-07-26T21:01:46.439Z,101132.94
2022-07-26T21:04:13.069Z,101136.31
2022-07-26T21:06:39.746Z,101141.59
2022-07-26T21:09:09.058Z,101164.53
2022-07-26T21:11:37.566Z,101161.13
2022-07-26T21:14:04.406Z,101148.72
2022-07-26T21:16:31.009Z,101145.25
2022-07-26T21:18:57.635Z,101162.69
2022-07-26T21:21:26.034Z,101162.81
2022-07-26T21:23:52.534Z,101145.22
2022-07-26T21:26:19.001Z,101152.28
2022-07-26T21:28:45.538Z,101153.09
2022-07-26T21:31:12.590Z,101150.50
2022-07-26T21:33:39.094Z,101161.88
2022-07-26T21:36:05.813Z,101159.28
2022-07-26T21:38:33.617Z,101158.44
2022-07-26T21:41:00.118Z,101161.94
2022-07-26T21:43:26.688Z,101163.63
2022-07-26T21:45:53.256Z,101160.25
2022-07-26T21:48:19.978Z,101144.53
2022-07-26T21:50:46.510Z,101162.78
2022-07-26T21:53:13.615Z,101160.19
2022-07-26T21:55:40.533Z,101170.69
2022-07-26T21:58:08.346Z,101167.19
2022-07-26T22:00:36.719Z,101172.41
2022-07-26T22:03:03.687Z,101183.78
2022-07-26T22:05:38.067Z,101178.41
2022-07-26T22:08:07.021Z,101173.13
2022-07-26T22:10:35.352Z,101187.16
2022-07-26T22:13:11.649Z,101175.94
2022-07-26T22:15:38.147Z,101183.94
2022-07-26T22:18:04.935Z,101181.44
2022-07-26T22:20:33.255Z,101189.25
2022-07-26T22:23:05.314Z,101187.38
2022-07-26T22:25:34.029Z,101186.47
2022-07-26T22:28:01.551Z,101185.56
2022-07-26T22:30:28.620Z,101179.44
2022-07-26T22:32:56.682Z,101190.81
2022-07-26T22:35:35.111Z,101193.41
2022-07-26T22:38:06.141Z,101200.44
2022-07-26T22:40:33.084Z,101192.53
2022-07-26T22:42:59.899Z,101182.91
2022-07-26T22:45:27.067Z,101182.03
2022-07-26T22:47:55.959Z,101189.94
2022-07-26T22:50:23.534Z,101194.34
2022-07-26T22:52:52.522Z,101182.13
2022-07-26T22:55:19.792Z,101197.94
2022-07-26T22:57:46.637Z,101187.50
2022-07-26T23:00:15.663Z,101178.84
2022-07-26T23:02:42.694Z,101190.16
2022-07-26T23:05:10.347Z,101192.78
2022-07-26T23:07:37.622Z,101195.38
2022-07-26T23:10:06.441Z,101191.88
2022-07-26T23:12:33.116Z,101190.94
2022-07-26T23:14:59.639Z,101196.25
2022-07-26T23:17:26.144Z,101197.94
2022-07-26T23:19:52.682Z,101190.03
2022-07-26T23:22:19.179Z,101183.94
2022-07-26T23:24:45.738Z,101197.03
2022-07-26T23:27:15.470Z,101198.72
2022-07-26T23:29:44.658Z,101200.53
2022-07-26T23:32:12.660Z,101199.69
2022-07-26T23:34:39.665Z,101198.78
2022-07-26T23:37:06.173Z,101197.88
2022-07-26T23:39:32.646Z,101199.66
2022-07-26T23:42:02.749Z,101197.00
2022-07-26T23:44:32.198Z,101193.53
2022-07-26T23:46:59.093Z,101189.22
2022-07-26T23:49:26.068Z,101192.69
2022-07-26T23:51:53.237Z,101194.41
2022-07-26T23:54:19.967Z,101190.06
2022-07-26T23:56:46.683Z,101195.31
2022-07-26T23:59:14.136Z,101196.25
